sensor_id;sensor_type;location;lat;lon;timestamp;temperature;humidity
60717;DHT22;46566;52.700;6.192;2023-04-03T00:01:15;3.60;99.90
60717;DHT22;46566;52.700;6.192;2023-04-03T00:03:41;3.60;99.90
60717;DHT22;46566;52.700;6.192;2023-04-03T00:06:07;3.60;99.90
60717;DHT22;46566;52.700;6.192;2023-04-03T00:08:34;3.60;99.90
60717;DHT22;46566;52.700;6.192;2023-04-03T00:11:00;3.50;99.90
60717;DHT22;46566;52.700;6.192;2023-04-03T00:13:26;3.50;99.90
60717;DHT22;46566;52.700;6.192;2023-04-03T00:15:52;3.50;99.90
60717;DHT22;46566;52.700;6.192;2023-04-03T00:18:18;3.50;99.90
60717;DHT22;46566;52.700;6.192;2023-04-03T00:20:43;3.50;99.90
60717;DHT22;46566;52.700;6.192;2023-04-03T00:23:09;3.40;99.90
60717;DHT22;46566;52.700;6.192;2023-04-03T00:25:35;3.50;99.90
60717;DHT22;46566;52.700;6.192;2023-04-03T00:28:00;3.40;99.90
60717;DHT22;46566;52.700;6.192;2023-04-03T00:30:26;3.40;99.90
60717;DHT22;46566;52.700;6.192;2023-04-03T00:32:52;3.40;99.90
60717;DHT22;46566;52.700;6.192;2023-04-03T00:35:19;3.30;99.90
60717;DHT22;46566;52.700;6.192;2023-04-03T00:37:45;3.30;99.90
60717;DHT22;46566;52.700;6.192;2023-04-03T00:40:11;3.20;99.90
60717;DHT22;46566;52.700;6.192;2023-04-03T00:42:38;3.20;99.90
60717;DHT22;46566;52.700;6.192;2023-04-03T00:47:30;3.20;99.90
60717;DHT22;46566;52.700;6.192;2023-04-03T00:49:56;3.20;99.90
60717;DHT22;46566;52.700;6.192;2023-04-03T00:52:23;3.10;99.90
60717;DHT22;46566;52.700;6.192;2023-04-03T00:54:51;3.20;99.90
60717;DHT22;46566;52.700;6.192;2023-04-03T00:57:18;3.10;99.90
60717;DHT22;46566;52.700;6.192;2023-04-03T00:59:46;3.10;99.90
60717;DHT22;46566;52.700;6.192;2023-04-03T01:02:14;3.10;99.90
60717;DHT22;46566;52.700;6.192;2023-04-03T01:04:41;3.00;99.90
60717;DHT22;46566;52.700;6.192;2023-04-03T01:07:08;3.00;99.90
60717;DHT22;46566;52.700;6.192;2023-04-03T01:09:35;3.00;99.90
60717;DHT22;46566;52.700;6.192;2023-04-03T01:14:41;2.90;99.90
60717;DHT22;46566;52.700;6.192;2023-04-03T01:19:53;2.90;99.90
60717;DHT22;46566;52.700;6.192;2023-04-03T01:22:26;2.80;99.90
60717;DHT22;46566;52.700;6.192;2023-04-03T01:24:54;2.80;99.90
60717;DHT22;46566;52.700;6.192;2023-04-03T01:27:19;2.80;99.90
60717;DHT22;46566;52.700;6.192;2023-04-03T01:29:45;2.70;99.90
60717;DHT22;46566;52.700;6.192;2023-04-03T01:32:11;2.70;99.90
60717;DHT22;46566;52.700;6.192;2023-04-03T01:34:36;2.70;99.90
60717;DHT22;46566;52.700;6.192;2023-04-03T01:37:02;2.60;99.90
60717;DHT22;46566;52.700;6.192;2023-04-03T01:39:28;2.60;99.90
60717;DHT22;46566;52.700;6.192;2023-04-03T01:41:54;2.60;99.90
60717;DHT22;46566;52.700;6.192;2023-04-03T01:44:29;2.60;99.90
60717;DHT22;46566;52.700;6.192;2023-04-03T01:46:55;2.60;99.90
60717;DHT22;46566;52.700;6.192;2023-04-03T01:49:22;2.50;99.90
60717;DHT22;46566;52.700;6.192;2023-04-03T01:51:48;2.50;99.90
60717;DHT22;46566;52.700;6.192;2023-04-03T01:54:14;2.50;99.90
60717;DHT22;46566;52.700;6.192;2023-04-03T01:56:39;2.40;99.90
60717;DHT22;46566;52.700;6.192;2023-04-03T01:59:06;2.40;99.90
60717;DHT22;46566;52.700;6.192;2023-04-03T02:01:32;2.40;99.90
60717;DHT22;46566;52.700;6.192;2023-04-03T02:03:57;2.40;99.90
60717;DHT22;46566;52.700;6.192;2023-04-03T02:06:23;2.40;99.90
60717;DHT22;46566;52.700;6.192;2023-04-03T02:08:49;2.30;99.90
60717;DHT22;46566;52.700;6.192;2023-04-03T02:11:15;2.30;99.90
60717;DHT22;46566;52.700;6.192;2023-04-03T02:13:41;2.30;99.90
60717;DHT22;46566;52.700;6.192;2023-04-03T02:16:08;2.30;99.90
60717;DHT22;46566;52.700;6.192;2023-04-03T02:18:33;2.20;99.90
60717;DHT22;46566;52.700;6.192;2023-04-03T02:20:59;2.20;99.90
60717;DHT22;46566;52.700;6.192;2023-04-03T02:23:25;2.20;99.90
60717;DHT22;46566;52.700;6.192;2023-04-03T02:25:51;2.20;99.90
60717;DHT22;46566;52.700;6.192;2023-04-03T02:28:17;2.20;99.90
60717;DHT22;46566;52.700;6.192;2023-04-03T02:30:42;2.10;99.90
60717;DHT22;46566;52.700;6.192;2023-04-03T02:33:08;2.10;99.90
60717;DHT22;46566;52.700;6.192;2023-04-03T02:35:34;2.10;99.90
60717;DHT22;46566;52.700;6.192;2023-04-03T02:38:00;2.10;99.90
60717;DHT22;46566;52.700;6.192;2023-04-03T02:40:26;2.10;99.90
60717;DHT22;46566;52.700;6.192;2023-04-03T02:42:51;2.10;99.90
60717;DHT22;46566;52.700;6.192;2023-04-03T02:45:18;2.10;99.90
60717;DHT22;46566;52.700;6.192;2023-04-03T02:47:44;2.10;99.90
60717;DHT22;46566;52.700;6.192;2023-04-03T02:50:09;2.00;99.90
60717;DHT22;46566;52.700;6.192;2023-04-03T02:52:35;2.00;99.90
60717;DHT22;46566;52.700;6.192;2023-04-03T02:55:01;2.00;99.90
60717;DHT22;46566;52.700;6.192;2023-04-03T02:57:26;2.00;99.90
60717;DHT22;46566;52.700;6.192;2023-04-03T02:59:52;1.90;99.90
60717;DHT22;46566;52.700;6.192;2023-04-03T03:02:18;1.90;99.90
60717;DHT22;46566;52.700;6.192;2023-04-03T03:04:43;1.90;99.90
60717;DHT22;46566;52.700;6.192;2023-04-03T03:07:09;1.90;99.90
60717;DHT22;46566;52.700;6.192;2023-04-03T03:09:34;1.80;99.90
60717;DHT22;46566;52.700;6.192;2023-04-03T03:12:00;1.80;99.90
60717;DHT22;46566;52.700;6.192;2023-04-03T03:14:26;1.80;99.90
60717;DHT22;46566;52.700;6.192;2023-04-03T03:16:51;1.90;99.90
60717;DHT22;46566;52.700;6.192;2023-04-03T03:19:17;1.80;99.90
60717;DHT22;46566;52.700;6.192;2023-04-03T03:21:43;1.80;99.90
60717;DHT22;46566;52.700;6.192;2023-04-03T03:24:08;1.80;99.90
60717;DHT22;46566;52.700;6.192;2023-04-03T03:26:34;1.80;99.90
60717;DHT22;46566;52.700;6.192;2023-04-03T03:29:01;1.80;99.90
60717;DHT22;46566;52.700;6.192;2023-04-03T03:31:27;1.80;99.90
60717;DHT22;46566;52.700;6.192;2023-04-03T03:33:52;1.90;99.90
60717;DHT22;46566;52.700;6.192;2023-04-03T03:36:18;1.90;99.90
60717;DHT22;46566;52.700;6.192;2023-04-03T03:38:43;1.80;99.90
60717;DHT22;46566;52.700;6.192;2023-04-03T03:41:09;1.80;99.90
60717;DHT22;46566;52.700;6.192;2023-04-03T03:43:35;1.80;99.90
60717;DHT22;46566;52.700;6.192;2023-04-03T03:46:02;1.80;99.90
60717;DHT22;46566;52.700;6.192;2023-04-03T03:48:28;1.80;99.90
60717;DHT22;46566;52.700;6.192;2023-04-03T03:50:53;1.80;99.90
60717;DHT22;46566;52.700;6.192;2023-04-03T03:53:23;1.80;99.90
60717;DHT22;46566;52.700;6.192;2023-04-03T03:55:52;1.80;99.90
60717;DHT22;46566;52.700;6.192;2023-04-03T03:58:20;1.80;99.90
60717;DHT22;46566;52.700;6.192;2023-04-03T04:00:46;1.80;99.90
60717;DHT22;46566;52.700;6.192;2023-04-03T04:03:12;1.70;99.90
60717;DHT22;46566;52.700;6.192;2023-04-03T04:05:38;1.70;99.90
60717;DHT22;46566;52.700;6.192;2023-04-03T04:08:03;1.80;99.90
60717;DHT22;46566;52.700;6.192;2023-04-03T04:10:29;1.70;99.90
60717;DHT22;46566;52.700;6.192;2023-04-03T04:12:56;1.80;99.90
60717;DHT22;46566;52.700;6.192;2023-04-03T04:15:23;1.70;99.90
60717;DHT22;46566;52.700;6.192;2023-04-03T04:17:51;1.60;99.90
60717;DHT22;46566;52.700;6.192;2023-04-03T04:20:17;1.60;99.90
60717;DHT22;46566;52.700;6.192;2023-04-03T04:22:42;1.60;99.90
60717;DHT22;46566;52.700;6.192;2023-04-03T04:25:09;1.60;99.90
60717;DHT22;46566;52.700;6.192;2023-04-03T04:27:37;1.60;99.90
60717;DHT22;46566;52.700;6.192;2023-04-03T04:30:03;1.60;99.90
60717;DHT22;46566;52.700;6.192;2023-04-03T04:32:30;1.50;99.90
60717;DHT22;46566;52.700;6.192;2023-04-03T04:34:56;1.50;99.90
60717;DHT22;46566;52.700;6.192;2023-04-03T04:37:22;1.50;99.90
60717;DHT22;46566;52.700;6.192;2023-04-03T04:39:47;1.50;99.90
60717;DHT22;46566;52.700;6.192;2023-04-03T04:42:13;1.50;99.90
60717;DHT22;46566;52.700;6.192;2023-04-03T04:44:40;1.40;99.90
60717;DHT22;46566;52.700;6.192;2023-04-03T04:47:06;1.40;99.90
60717;DHT22;46566;52.700;6.192;2023-04-03T04:49:32;1.40;99.90
60717;DHT22;46566;52.700;6.192;2023-04-03T04:51:58;1.30;99.90
60717;DHT22;46566;52.700;6.192;2023-04-03T04:54:27;1.30;99.90
60717;DHT22;46566;52.700;6.192;2023-04-03T04:56:53;1.20;99.90
60717;DHT22;46566;52.700;6.192;2023-04-03T04:59:19;1.20;99.90
60717;DHT22;46566;52.700;6.192;2023-04-03T05:01:45;1.20;99.90
60717;DHT22;46566;52.700;6.192;2023-04-03T05:04:14;1.10;99.90
60717;DHT22;46566;52.700;6.192;2023-04-03T05:06:41;1.10;99.90
60717;DHT22;46566;52.700;6.192;2023-04-03T05:09:11;1.10;99.90
60717;DHT22;46566;52.700;6.192;2023-04-03T05:11:38;1.00;99.90
60717;DHT22;46566;52.700;6.192;2023-04-03T05:14:05;1.00;99.90
60717;DHT22;46566;52.700;6.192;2023-04-03T05:16:32;0.90;99.90
60717;DHT22;46566;52.700;6.192;2023-04-03T05:18:58;0.90;99.90
60717;DHT22;46566;52.700;6.192;2023-04-03T05:21:24;0.90;99.90
60717;DHT22;46566;52.700;6.192;2023-04-03T05:23:51;0.80;99.90
60717;DHT22;46566;52.700;6.192;2023-04-03T05:26:18;0.90;99.90
60717;DHT22;46566;52.700;6.192;2023-04-03T05:28:46;0.90;99.90
60717;DHT22;46566;52.700;6.192;2023-04-03T05:31:12;0.90;99.90
60717;DHT22;46566;52.700;6.192;2023-04-03T05:33:38;0.90;99.90
60717;DHT22;46566;52.700;6.192;2023-04-03T05:36:06;0.80;99.90
60717;DHT22;46566;52.700;6.192;2023-04-03T05:38:36;0.90;99.90
60717;DHT22;46566;52.700;6.192;2023-04-03T05:41:02;0.80;99.90
60717;DHT22;46566;52.700;6.192;2023-04-03T05:43:27;0.80;99.90
60717;DHT22;46566;52.700;6.192;2023-04-03T05:45:54;0.80;99.90
60717;DHT22;46566;52.700;6.192;2023-04-03T05:48:21;0.80;99.90
60717;DHT22;46566;52.700;6.192;2023-04-03T05:50:47;0.90;99.90
60717;DHT22;46566;52.700;6.192;2023-04-03T05:53:21;0.80;99.90
60717;DHT22;46566;52.700;6.192;2023-04-03T05:55:47;0.90;99.90
60717;DHT22;46566;52.700;6.192;2023-04-03T05:58:13;0.90;99.90
60717;DHT22;46566;52.700;6.192;2023-04-03T06:00:39;0.90;99.90
60717;DHT22;46566;52.700;6.192;2023-04-03T06:03:05;0.90;99.90
60717;DHT22;46566;52.700;6.192;2023-04-03T06:05:31;0.90;99.90
60717;DHT22;46566;52.700;6.192;2023-04-03T06:07:57;1.00;99.90
60717;DHT22;46566;52.700;6.192;2023-04-03T06:10:23;1.00;99.90
60717;DHT22;46566;52.700;6.192;2023-04-03T06:12:49;1.00;99.90
60717;DHT22;46566;52.700;6.192;2023-04-03T06:15:15;1.10;99.90
60717;DHT22;46566;52.700;6.192;2023-04-03T06:17:42;1.10;99.90
60717;DHT22;46566;52.700;6.192;2023-04-03T06:20:08;1.10;99.90
60717;DHT22;46566;52.700;6.192;2023-04-03T06:22:34;1.10;99.90
60717;DHT22;46566;52.700;6.192;2023-04-03T06:25:01;1.10;99.90
60717;DHT22;46566;52.700;6.192;2023-04-03T06:27:26;1.20;99.90
60717;DHT22;46566;52.700;6.192;2023-04-03T06:29:52;1.20;99.90
60717;DHT22;46566;52.700;6.192;2023-04-03T06:32:18;1.30;99.90
60717;DHT22;46566;52.700;6.192;2023-04-03T06:34:43;1.30;99.90
60717;DHT22;46566;52.700;6.192;2023-04-03T06:37:15;1.30;99.90
60717;DHT22;46566;52.700;6.192;2023-04-03T06:39:42;1.40;99.90
60717;DHT22;46566;52.700;6.192;2023-04-03T06:42:07;1.50;99.90
60717;DHT22;46566;52.700;6.192;2023-04-03T06:44:45;1.50;99.90
60717;DHT22;46566;52.700;6.192;2023-04-03T06:47:11;1.50;99.90
60717;DHT22;46566;52.700;6.192;2023-04-03T06:49:37;1.60;99.90
60717;DHT22;46566;52.700;6.192;2023-04-03T06:52:03;1.60;99.90
60717;DHT22;46566;52.700;6.192;2023-04-03T06:54:30;1.70;99.90
60717;DHT22;46566;52.700;6.192;2023-04-03T06:56:55;1.80;99.90
60717;DHT22;46566;52.700;6.192;2023-04-03T06:59:21;1.80;99.90
60717;DHT22;46566;52.700;6.192;2023-04-03T07:01:46;1.90;99.90
60717;DHT22;46566;52.700;6.192;2023-04-03T07:04:12;2.00;99.90
60717;DHT22;46566;52.700;6.192;2023-04-03T07:06:38;2.00;99.90
60717;DHT22;46566;52.700;6.192;2023-04-03T07:09:04;2.10;99.90
60717;DHT22;46566;52.700;6.192;2023-04-03T07:11:29;2.20;99.90
60717;DHT22;46566;52.700;6.192;2023-04-03T07:13:55;2.20;99.90
60717;DHT22;46566;52.700;6.192;2023-04-03T07:16:21;2.30;99.90
60717;DHT22;46566;52.700;6.192;2023-04-03T07:18:47;2.30;99.90
60717;DHT22;46566;52.700;6.192;2023-04-03T07:21:13;2.40;99.90
60717;DHT22;46566;52.700;6.192;2023-04-03T07:23:38;2.40;99.90
60717;DHT22;46566;52.700;6.192;2023-04-03T07:26:04;2.50;99.90
60717;DHT22;46566;52.700;6.192;2023-04-03T07:28:30;2.60;99.90
60717;DHT22;46566;52.700;6.192;2023-04-03T07:31:14;2.60;99.90
60717;DHT22;46566;52.700;6.192;2023-04-03T07:33:40;2.70;99.90
60717;DHT22;46566;52.700;6.192;2023-04-03T07:36:06;2.80;99.90
60717;DHT22;46566;52.700;6.192;2023-04-03T07:38:33;2.80;99.90
60717;DHT22;46566;52.700;6.192;2023-04-03T07:40:58;2.90;99.90
60717;DHT22;46566;52.700;6.192;2023-04-03T07:43:24;3.00;99.90
60717;DHT22;46566;52.700;6.192;2023-04-03T07:45:52;3.10;99.90
60717;DHT22;46566;52.700;6.192;2023-04-03T07:48:20;3.20;99.90
60717;DHT22;46566;52.700;6.192;2023-04-03T07:50:46;3.20;99.90
60717;DHT22;46566;52.700;6.192;2023-04-03T07:53:11;3.30;99.90
60717;DHT22;46566;52.700;6.192;2023-04-03T07:55:37;3.50;99.90
60717;DHT22;46566;52.700;6.192;2023-04-03T07:58:09;3.60;99.90
60717;DHT22;46566;52.700;6.192;2023-04-03T08:00:35;3.70;99.90
60717;DHT22;46566;52.700;6.192;2023-04-03T08:41:58;15.40;52.00
60717;DHT22;46566;52.700;6.192;2023-04-03T08:44:25;15.40;52.10
60717;DHT22;46566;52.700;6.192;2023-04-03T08:46:56;15.50;51.20
60717;DHT22;46566;52.700;6.192;2023-04-03T08:49:26;15.70;52.50
60717;DHT22;46566;52.700;6.192;2023-04-03T08:51:53;15.70;49.50
60717;DHT22;46566;52.700;6.192;2023-04-03T08:54:28;16.00;49.00
60717;DHT22;46566;52.700;6.192;2023-04-03T08:56:55;16.00;49.40
60717;DHT22;46566;52.700;6.192;2023-04-03T09:01:47;16.40;48.90
60717;DHT22;46566;52.700;6.192;2023-04-03T09:04:14;16.10;47.10
60717;DHT22;46566;52.700;6.192;2023-04-03T09:06:42;16.30;50.30
60717;DHT22;46566;52.700;6.192;2023-04-03T09:09:17;16.50;48.90
60717;DHT22;46566;52.700;6.192;2023-04-03T09:16:58;15.70;45.90
60717;DHT22;46566;52.700;6.192;2023-04-03T09:21:55;14.70;50.00
60717;DHT22;46566;52.700;6.192;2023-04-03T09:24:21;14.00;49.60
60717;DHT22;46566;52.700;6.192;2023-04-03T09:26:51;13.40;50.20
60717;DHT22;46566;52.700;6.192;2023-04-03T09:29:19;13.00;52.30
60717;DHT22;46566;52.700;6.192;2023-04-03T09:31:46;13.00;55.60
60717;DHT22;46566;52.700;6.192;2023-04-03T09:34:23;12.80;52.70
60717;DHT22;46566;52.700;6.192;2023-04-03T09:36:51;12.70;52.80
60717;DHT22;46566;52.700;6.192;2023-04-03T09:39:18;12.50;52.80
60717;DHT22;46566;52.700;6.192;2023-04-03T09:42:03;12.40;51.70
60717;DHT22;46566;52.700;6.192;2023-04-03T09:46:56;12.50;52.80
60717;DHT22;46566;52.700;6.192;2023-04-03T09:49:22;12.50;51.80
60717;DHT22;46566;52.700;6.192;2023-04-03T09:51:48;12.50;57.20
60717;DHT22;46566;52.700;6.192;2023-04-03T09:54:24;12.30;52.30
60717;DHT22;46566;52.700;6.192;2023-04-03T09:56:51;12.20;53.60
60717;DHT22;46566;52.700;6.192;2023-04-03T09:59:18;12.00;50.80
60717;DHT22;46566;52.700;6.192;2023-04-03T10:01:57;12.00;51.40
60717;DHT22;46566;52.700;6.192;2023-04-03T10:04:23;12.30;55.50
60717;DHT22;46566;52.700;6.192;2023-04-03T10:06:50;12.40;54.40
60717;DHT22;46566;52.700;6.192;2023-04-03T10:09:50;12.50;54.70
60717;DHT22;46566;52.700;6.192;2023-04-03T10:12:11;12.30;49.70
60717;DHT22;46566;52.700;6.192;2023-04-03T10:14:40;12.20;52.60
60717;DHT22;46566;52.700;6.192;2023-04-03T10:19:56;12.10;51.20
60717;DHT22;46566;52.700;6.192;2023-04-03T10:37:51;12.00;47.30
60717;DHT22;46566;52.700;6.192;2023-04-03T10:45:44;12.40;48.00
60717;DHT22;46566;52.700;6.192;2023-04-03T10:48:17;12.70;46.80
60717;DHT22;46566;52.700;6.192;2023-04-03T10:51:00;13.00;45.20
60717;DHT22;46566;52.700;6.192;2023-04-03T10:56:37;13.50;47.50
60717;DHT22;46566;52.700;6.192;2023-04-03T10:59:13;13.30;46.00
60717;DHT22;46566;52.700;6.192;2023-04-03T11:01:42;13.20;47.00
60717;DHT22;46566;52.700;6.192;2023-04-03T11:04:09;13.20;48.00
60717;DHT22;46566;52.700;6.192;2023-04-03T11:06:37;13.10;45.70
60717;DHT22;46566;52.700;6.192;2023-04-03T11:12:00;12.90;55.10
60717;DHT22;46566;52.700;6.192;2023-04-03T11:14:28;12.50;47.00
60717;DHT22;46566;52.700;6.192;2023-04-03T11:22:22;12.80;49.80
60717;DHT22;46566;52.700;6.192;2023-04-03T11:27:51;12.90;50.90
60717;DHT22;46566;52.700;6.192;2023-04-03T11:30:20;13.10;49.70
60717;DHT22;46566;52.700;6.192;2023-04-03T11:35:37;13.10;48.90
60717;DHT22;46566;52.700;6.192;2023-04-03T11:38:10;12.90;46.20
60717;DHT22;46566;52.700;6.192;2023-04-03T11:43:30;13.00;48.30
60717;DHT22;46566;52.700;6.192;2023-04-03T11:45:57;12.90;46.60
60717;DHT22;46566;52.700;6.192;2023-04-03T11:53:35;13.10;49.70
60717;DHT22;46566;52.700;6.192;2023-04-03T12:01:47;13.20;47.20
60717;DHT22;46566;52.700;6.192;2023-04-03T12:04:15;13.30;48.50
60717;DHT22;46566;52.700;6.192;2023-04-03T12:07:01;13.30;46.50
60717;DHT22;46566;52.700;6.192;2023-04-03T12:09:29;13.40;48.70
60717;DHT22;46566;52.700;6.192;2023-04-03T12:11:58;13.40;47.90
60717;DHT22;46566;52.700;6.192;2023-04-03T12:17:20;13.60;46.50
60717;DHT22;46566;52.700;6.192;2023-04-03T12:19:47;13.70;49.20
60717;DHT22;46566;52.700;6.192;2023-04-03T12:22:16;13.60;45.70
60717;DHT22;46566;52.700;6.192;2023-04-03T12:24:51;13.70;47.60
60717;DHT22;46566;52.700;6.192;2023-04-03T12:27:25;13.70;46.90
60717;DHT22;46566;52.700;6.192;2023-04-03T12:30:00;13.80;46.80
60717;DHT22;46566;52.700;6.192;2023-04-03T12:35:26;13.70;45.70
60717;DHT22;46566;52.700;6.192;2023-04-03T12:46:26;13.70;46.60
60717;DHT22;46566;52.700;6.192;2023-04-03T12:48:57;13.70;47.20
60717;DHT22;46566;52.700;6.192;2023-04-03T12:54:35;13.60;47.00
60717;DHT22;46566;52.700;6.192;2023-04-03T12:59:58;13.70;47.80
60717;DHT22;46566;52.700;6.192;2023-04-03T13:13:53;13.60;47.00
60717;DHT22;46566;52.700;6.192;2023-04-03T13:16:19;13.70;46.70
60717;DHT22;46566;52.700;6.192;2023-04-03T13:21:35;13.70;46.30
60717;DHT22;46566;52.700;6.192;2023-04-03T13:24:01;13.50;47.10
60717;DHT22;46566;52.700;6.192;2023-04-03T13:26:29;13.50;47.50
60717;DHT22;46566;52.700;6.192;2023-04-03T13:29:24;13.40;46.70
60717;DHT22;46566;52.700;6.192;2023-04-03T13:31:52;13.50;47.50
60717;DHT22;46566;52.700;6.192;2023-04-03T13:34:19;13.30;47.30
60717;DHT22;46566;52.700;6.192;2023-04-03T13:39:37;13.40;47.70
60717;DHT22;46566;52.700;6.192;2023-04-03T13:42:20;13.40;46.70
60717;DHT22;46566;52.700;6.192;2023-04-03T13:47:45;13.10;46.90
60717;DHT22;46566;52.700;6.192;2023-04-03T13:53:08;13.10;48.50
60717;DHT22;46566;52.700;6.192;2023-04-03T13:55:37;13.20;49.40
60717;DHT22;46566;52.700;6.192;2023-04-03T13:58:37;13.30;46.90
60717;DHT22;46566;52.700;6.192;2023-04-03T14:04:22;13.20;48.00
60717;DHT22;46566;52.700;6.192;2023-04-03T14:06:48;13.30;47.80
60717;DHT22;46566;52.700;6.192;2023-04-03T14:09:15;13.50;48.60
60717;DHT22;46566;52.700;6.192;2023-04-03T14:14:34;13.60;49.10
60717;DHT22;46566;52.700;6.192;2023-04-03T14:17:01;13.40;46.60
60717;DHT22;46566;52.700;6.192;2023-04-03T14:22:23;13.30;46.70
60717;DHT22;46566;52.700;6.192;2023-04-03T14:24:50;13.30;47.90
60717;DHT22;46566;52.700;6.192;2023-04-03T14:30:04;13.30;49.30
60717;DHT22;46566;52.700;6.192;2023-04-03T14:32:30;13.20;47.50
60717;DHT22;46566;52.700;6.192;2023-04-03T14:34:55;13.10;47.60
60717;DHT22;46566;52.700;6.192;2023-04-03T14:37:23;13.20;49.80
60717;DHT22;46566;52.700;6.192;2023-04-03T14:42:40;13.20;49.60
60717;DHT22;46566;52.700;6.192;2023-04-03T14:45:07;13.20;49.20
60717;DHT22;46566;52.700;6.192;2023-04-03T14:47:33;13.10;50.90
60717;DHT22;46566;52.700;6.192;2023-04-03T14:50:21;13.20;50.20
60717;DHT22;46566;52.700;6.192;2023-04-03T14:52:49;13.00;48.30
60717;DHT22;46566;52.700;6.192;2023-04-03T14:55:16;12.80;48.40
60717;DHT22;46566;52.700;6.192;2023-04-03T14:57:42;12.80;50.30
60717;DHT22;46566;52.700;6.192;2023-04-03T15:00:18;12.80;49.90
60717;DHT22;46566;52.700;6.192;2023-04-03T15:02:45;12.70;49.70
60717;DHT22;46566;52.700;6.192;2023-04-03T15:05:11;12.60;50.00
60717;DHT22;46566;52.700;6.192;2023-04-03T15:07:38;12.50;52.20
60717;DHT22;46566;52.700;6.192;2023-04-03T15:13:04;12.30;50.00
60717;DHT22;46566;52.700;6.192;2023-04-03T15:15:30;12.00;50.30
60717;DHT22;46566;52.700;6.192;2023-04-03T15:17:56;11.90;50.80
60717;DHT22;46566;52.700;6.192;2023-04-03T15:25:31;11.60;51.50
60717;DHT22;46566;52.700;6.192;2023-04-03T15:27:57;11.40;51.40
60717;DHT22;46566;52.700;6.192;2023-04-03T15:30:23;11.30;51.50
60717;DHT22;46566;52.700;6.192;2023-04-03T15:32:57;11.20;52.30
60717;DHT22;46566;52.700;6.192;2023-04-03T15:35:23;11.10;52.60
60717;DHT22;46566;52.700;6.192;2023-04-03T15:37:48;11.00;51.70
60717;DHT22;46566;52.700;6.192;2023-04-03T15:40:15;10.90;52.30
60717;DHT22;46566;52.700;6.192;2023-04-03T15:42:40;11.00;54.30
60717;DHT22;46566;52.700;6.192;2023-04-03T15:47:56;11.10;54.20
60717;DHT22;46566;52.700;6.192;2023-04-03T15:50:22;11.00;52.40
60717;DHT22;46566;52.700;6.192;2023-04-03T15:52:49;11.00;52.80
60717;DHT22;46566;52.700;6.192;2023-04-03T15:55:30;10.90;53.70
60717;DHT22;46566;52.700;6.192;2023-04-03T15:57:56;10.80;52.60
60717;DHT22;46566;52.700;6.192;2023-04-03T16:00:22;10.70;52.10
60717;DHT22;46566;52.700;6.192;2023-04-03T16:02:48;10.60;53.00
60717;DHT22;46566;52.700;6.192;2023-04-03T16:05:15;10.60;54.60
60717;DHT22;46566;52.700;6.192;2023-04-03T16:10:36;10.50;53.20
60717;DHT22;46566;52.700;6.192;2023-04-03T16:13:02;10.40;54.40
60717;DHT22;46566;52.700;6.192;2023-04-03T16:18:19;10.30;54.90
60717;DHT22;46566;52.700;6.192;2023-04-03T16:20:45;10.20;53.70
60717;DHT22;46566;52.700;6.192;2023-04-03T16:23:11;10.20;54.80
60717;DHT22;46566;52.700;6.192;2023-04-03T16:28:20;10.10;53.80
60717;DHT22;46566;52.700;6.192;2023-04-03T16:30:45;10.10;53.90
60717;DHT22;46566;52.700;6.192;2023-04-03T16:33:12;10.00;53.20
60717;DHT22;46566;52.700;6.192;2023-04-03T16:35:38;9.90;54.90
60717;DHT22;46566;52.700;6.192;2023-04-03T16:40:55;9.90;54.50
60717;DHT22;46566;52.700;6.192;2023-04-03T16:43:25;9.80;54.20
60717;DHT22;46566;52.700;6.192;2023-04-03T16:45:51;9.80;53.80
60717;DHT22;46566;52.700;6.192;2023-04-03T16:51:08;9.80;55.00
60717;DHT22;46566;52.700;6.192;2023-04-03T16:53:33;9.80;56.00
60717;DHT22;46566;52.700;6.192;2023-04-03T16:55:59;9.70;54.40
60717;DHT22;46566;52.700;6.192;2023-04-03T16:58:24;9.70;55.10
60717;DHT22;46566;52.700;6.192;2023-04-03T17:01:11;9.60;55.10
60717;DHT22;46566;52.700;6.192;2023-04-03T17:03:37;9.60;55.60
60717;DHT22;46566;52.700;6.192;2023-04-03T17:06:03;9.50;55.30
60717;DHT22;46566;52.700;6.192;2023-04-03T17:08:28;9.50;55.00
60717;DHT22;46566;52.700;6.192;2023-04-03T17:13:46;9.40;55.80
60717;DHT22;46566;52.700;6.192;2023-04-03T17:16:13;9.40;55.70
60717;DHT22;46566;52.700;6.192;2023-04-03T17:18:39;9.40;56.10
60717;DHT22;46566;52.700;6.192;2023-04-03T17:21:17;9.30;56.90
60717;DHT22;46566;52.700;6.192;2023-04-03T17:23:44;9.30;57.80
60717;DHT22;46566;52.700;6.192;2023-04-03T17:26:10;9.30;57.80
60717;DHT22;46566;52.700;6.192;2023-04-03T17:28:36;9.20;58.10
60717;DHT22;46566;52.700;6.192;2023-04-03T17:31:03;9.20;58.60
60717;DHT22;46566;52.700;6.192;2023-04-03T17:36:19;9.10;58.20
60717;DHT22;46566;52.700;6.192;2023-04-03T17:38:45;9.00;58.10
60717;DHT22;46566;52.700;6.192;2023-04-03T17:41:13;9.00;58.30
60717;DHT22;46566;52.700;6.192;2023-04-03T17:43:56;9.00;59.40
60717;DHT22;46566;52.700;6.192;2023-04-03T17:46:23;8.90;59.90
60717;DHT22;46566;52.700;6.192;2023-04-03T17:48:49;8.90;59.60
60717;DHT22;46566;52.700;6.192;2023-04-03T17:51:16;8.90;60.20
60717;DHT22;46566;52.700;6.192;2023-04-03T17:53:57;8.80;60.20
60717;DHT22;46566;52.700;6.192;2023-04-03T17:56:23;8.80;61.10
60717;DHT22;46566;52.700;6.192;2023-04-03T17:58:52;8.70;60.70
60717;DHT22;46566;52.700;6.192;2023-04-03T18:01:25;8.70;61.60
60717;DHT22;46566;52.700;6.192;2023-04-03T18:04:03;8.70;62.00
60717;DHT22;46566;52.700;6.192;2023-04-03T18:06:30;8.70;61.90
60717;DHT22;46566;52.700;6.192;2023-04-03T18:09:04;8.70;62.40
60717;DHT22;46566;52.700;6.192;2023-04-03T18:11:33;8.60;62.20
60717;DHT22;46566;52.700;6.192;2023-04-03T18:14:12;8.60;63.10
60717;DHT22;46566;52.700;6.192;2023-04-03T18:16:38;8.50;63.20
60717;DHT22;46566;52.700;6.192;2023-04-03T18:19:04;8.50;63.70
60717;DHT22;46566;52.700;6.192;2023-04-03T18:21:31;8.50;64.80
60717;DHT22;46566;52.700;6.192;2023-04-03T18:23:57;8.50;66.20
60717;DHT22;46566;52.700;6.192;2023-04-03T18:29:14;8.40;65.50
60717;DHT22;46566;52.700;6.192;2023-04-03T18:31:40;8.40;66.40
60717;DHT22;46566;52.700;6.192;2023-04-03T18:34:07;8.30;65.70
60717;DHT22;46566;52.700;6.192;2023-04-03T18:36:33;8.20;65.60
60717;DHT22;46566;52.700;6.192;2023-04-03T18:38:59;8.10;66.10
60717;DHT22;46566;52.700;6.192;2023-04-03T18:41:26;8.10;67.10
60717;DHT22;46566;52.700;6.192;2023-04-03T18:43:53;8.00;67.30
60717;DHT22;46566;52.700;6.192;2023-04-03T18:46:19;8.00;67.70
60717;DHT22;46566;52.700;6.192;2023-04-03T18:48:45;8.00;68.30
60717;DHT22;46566;52.700;6.192;2023-04-03T18:51:11;7.90;68.10
60717;DHT22;46566;52.700;6.192;2023-04-03T18:53:38;7.90;68.60
60717;DHT22;46566;52.700;6.192;2023-04-03T18:56:03;7.80;68.10
60717;DHT22;46566;52.700;6.192;2023-04-03T18:58:29;7.80;69.10
60717;DHT22;46566;52.700;6.192;2023-04-03T19:00:57;7.70;67.90
60717;DHT22;46566;52.700;6.192;2023-04-03T19:03:22;7.70;68.00
60717;DHT22;46566;52.700;6.192;2023-04-03T19:05:48;7.60;68.60
60717;DHT22;46566;52.700;6.192;2023-04-03T19:08:14;7.50;68.60